Time;durP1;ratioP1;P1;durP2;ratioP2;P2;SDS_P1;SDS_P2;PMS_P1;PMS_P2;Temp;Humidity;BMP_temperature;BMP_pressure;BME280_temperature;BME280_humidity;BME280_pressure;Samples;Min_cycle;Max_cycle;Signal;HPM_P1;HPM_P2
2021/05/26 00:01:39;;;;;;;0.00;0.00;;;;;;;;;;5029054;28;20203;-63
2021/05/26 00:04:08;;;;;;;0.00;0.00;;;;;;;;;;5030492;28;20192;-64
2021/05/26 00:06:34;;;;;;;0.77;0.10;;;;;;;;;;5024687;28;20987;-64
2021/05/26 00:09:02;;;;;;;0.73;0.73;;;;;;;;;;5023946;28;21663;-63
2021/05/26 00:11:29;;;;;;;0.77;0.77;;;;;;;;;;5034997;28;20278;-63
2021/05/26 00:13:56;;;;;;;3.53;0.83;;;;;;;;;;5028427;28;20220;-64
2021/05/26 00:16:25;;;;;;;0.17;0.00;;;;;;;;;;5022638;28;20180;-64
2021/05/26 00:18:52;;;;;;;0.03;0.03;;;;;;;;;;5028772;28;20184;-63
2021/05/26 00:21:23;;;;;;;0.50;0.50;;;;;;;;;;5025283;28;20191;-64
2021/05/26 00:23:50;;;;;;;0.10;0.10;;;;;;;;;;5011703;28;20271;-64
2021/05/26 00:26:17;;;;;;;0.50;0.30;;;;;;;;;;5028278;28;20198;-63
2021/05/26 00:28:46;;;;;;;0.97;0.97;;;;;;;;;;5018952;28;22532;-64
2021/05/26 00:31:12;;;;;;;0.10;0.10;;;;;;;;;;5019780;28;20620;-64
2021/05/26 00:33:39;;;;;;;0.00;0.00;;;;;;;;;;5023203;28;20632;-64
2021/05/26 00:36:06;;;;;;;1.00;0.40;;;;;;;;;;5022667;28;20274;-64
2021/05/26 00:38:32;;;;;;;0.20;0.20;;;;;;;;;;5010107;28;20196;-64
2021/05/26 00:40:59;;;;;;;0.10;0.10;;;;;;;;;;5057593;28;20223;-61
2021/05/26 00:43:25;;;;;;;0.00;0.00;;;;;;;;;;5019757;28;20200;-62
2021/05/26 00:45:53;;;;;;;0.00;0.00;;;;;;;;;;5026504;28;20653;-62
2021/05/26 00:48:20;;;;;;;0.07;0.03;;;;;;;;;;5021789;28;20197;-62
2021/05/26 00:50:46;;;;;;;0.00;0.00;;;;;;;;;;5027355;28;20199;-62
2021/05/26 00:53:14;;;;;;;0.00;0.00;;;;;;;;;;5025454;28;20202;-62
2021/05/26 00:55:41;;;;;;;19.23;1.20;;;;;;;;;;5022495;28;21019;-62
2021/05/26 00:58:10;;;;;;;0.47;0.47;;;;;;;;;;5029505;28;20262;-65
2021/05/26 01:00:37;;;;;;;0.00;0.00;;;;;;;;;;5026929;28;20909;-63
2021/05/26 01:03:04;;;;;;;0.00;0.00;;;;;;;;;;5023334;28;20307;-64
2021/05/26 01:05:31;;;;;;;1.40;0.63;;;;;;;;;;5025542;28;20883;-63
2021/05/26 01:07:58;;;;;;;0.00;0.00;;;;;;;;;;5023653;28;20180;-64
2021/05/26 01:10:26;;;;;;;0.00;0.00;;;;;;;;;;5024667;28;20199;-63
2021/05/26 01:12:54;;;;;;;0.40;0.40;;;;;;;;;;5024950;28;20187;-63
2021/05/26 01:15:22;;;;;;;0.53;0.53;;;;;;;;;;5025176;28;20935;-63
2021/05/26 01:17:48;;;;;;;5.43;0.67;;;;;;;;;;5020459;28;21868;-63
2021/05/26 01:20:23;;;;;;;0.00;0.00;;;;;;;;;;5023588;28;20211;-62
2021/05/26 01:22:50;;;;;;;0.10;0.10;;;;;;;;;;5022349;28;20183;-63
2021/05/26 01:25:18;;;;;;;0.00;0.00;;;;;;;;;;5026308;28;20264;-63
2021/05/26 01:27:45;;;;;;;0.00;0.00;;;;;;;;;;5018507;28;21571;-63
2021/05/26 01:30:12;;;;;;;0.00;0.00;;;;;;;;;;5018154;28;20223;-63
2021/05/26 01:32:42;;;;;;;0.10;0.00;;;;;;;;;;5017800;28;21013;-63
2021/05/26 01:35:09;;;;;;;0.00;0.00;;;;;;;;;;5019595;28;20208;-63
2021/05/26 01:37:42;;;;;;;0.00;0.00;;;;;;;;;;5019342;28;20597;-63
2021/05/26 01:40:10;;;;;;;0.10;0.10;;;;;;;;;;5024971;28;20754;-63
2021/05/26 01:42:36;;;;;;;0.00;0.00;;;;;;;;;;5024492;28;20203;-62
2021/05/26 01:45:04;;;;;;;0.23;0.23;;;;;;;;;;5022694;28;20234;-62
2021/05/26 01:47:31;;;;;;;1.90;1.17;;;;;;;;;;5022416;28;20234;-63
2021/05/26 01:49:57;;;;;;;0.00;0.00;;;;;;;;;;5020863;28;20184;-63
2021/05/26 01:52:24;;;;;;;1.90;1.23;;;;;;;;;;5019629;28;20203;-63
2021/05/26 01:54:51;;;;;;;1.40;0.40;;;;;;;;;;5018708;28;20232;-62
2021/05/26 01:57:18;;;;;;;0.97;0.57;;;;;;;;;;5021398;28;20191;-62
2021/05/26 01:59:45;;;;;;;0.60;0.60;;;;;;;;;;5022585;28;20212;-63
2021/05/26 02:02:11;;;;;;;6.40;0.97;;;;;;;;;;5016136;28;20185;-63
2021/05/26 02:04:38;;;;;;;0.00;0.00;;;;;;;;;;5018832;28;20243;-62
2021/05/26 02:07:08;;;;;;;0.77;0.77;;;;;;;;;;5019831;28;20196;-62
2021/05/26 02:09:38;;;;;;;0.93;0.50;;;;;;;;;;5022816;28;20194;-62
2021/05/26 02:12:22;;;;;;;0.97;0.53;;;;;;;;;;5022593;28;21643;-62
2021/05/26 02:14:49;;;;;;;13.93;4.13;;;;;;;;;;5024503;28;20280;-61
2021/05/26 02:17:16;;;;;;;7.63;0.37;;;;;;;;;;5023270;28;20195;-62
2021/05/26 02:19:43;;;;;;;0.30;0.30;;;;;;;;;;5022696;28;20210;-62
2021/05/26 02:22:10;;;;;;;0.40;0.40;;;;;;;;;;5022748;28;20207;-62
2021/05/26 02:24:38;;;;;;;0.47;0.20;;;;;;;;;;5023918;28;20203;-62
2021/05/26 02:27:04;;;;;;;1.70;0.60;;;;;;;;;;5018549;28;20192;-62
2021/05/26 02:29:31;;;;;;;1.03;0.27;;;;;;;;;;5022979;28;20199;-62
2021/05/26 02:31:58;;;;;;;0.00;0.00;;;;;;;;;;5015607;28;20220;-61
2021/05/26 02:34:25;;;;;;;0.73;0.10;;;;;;;;;;5014256;28;20211;-62
2021/05/26 02:36:51;;;;;;;0.03;0.03;;;;;;;;;;5018660;28;20183;-62
2021/05/26 02:39:18;;;;;;;0.00;0.00;;;;;;;;;;5016965;28;20193;-62
2021/05/26 02:41:45;;;;;;;0.00;0.00;;;;;;;;;;5014178;28;20215;-62
2021/05/26 02:44:12;;;;;;;6.27;0.43;;;;;;;;;;5017939;28;20201;-62
2021/05/26 02:46:39;;;;;;;0.00;0.00;;;;;;;;;;5016269;28;20196;-62
2021/05/26 02:49:06;;;;;;;0.20;0.20;;;;;;;;;;5030367;28;20894;-62
2021/05/26 02:51:33;;;;;;;1.70;0.67;;;;;;;;;;5034075;28;20180;-62
2021/05/26 02:54:00;;;;;;;0.00;0.00;;;;;;;;;;5020628;28;20228;-62
2021/05/26 02:56:27;;;;;;;0.43;0.43;;;;;;;;;;5017841;28;20220;-61
2021/05/26 02:58:54;;;;;;;0.47;0.40;;;;;;;;;;5020379;28;20351;-61
2021/05/26 03:01:21;;;;;;;1.07;0.87;;;;;;;;;;5024235;28;20179;-61
2021/05/26 03:03:48;;;;;;;0.43;0.30;;;;;;;;;;5033592;28;20214;-62
2021/05/26 03:06:15;;;;;;;1.47;0.57;;;;;;;;;;5026151;28;20207;-61
2021/05/26 03:08:42;;;;;;;0.77;0.20;;;;;;;;;;5031972;28;20207;-61
2021/05/26 03:11:09;;;;;;;0.37;0.17;;;;;;;;;;5029001;28;20998;-61
2021/05/26 03:13:35;;;;;;;0.43;0.03;;;;;;;;;;5034602;28;20183;-62
2021/05/26 03:16:05;;;;;;;3.90;1.43;;;;;;;;;;5029013;28;20290;-62
2021/05/26 03:18:31;;;;;;;0.00;0.00;;;;;;;;;;5030920;28;20661;-61
2021/05/26 03:20:58;;;;;;;0.00;0.00;;;;;;;;;;5018065;28;20275;-61
2021/05/26 03:23:27;;;;;;;0.20;0.10;;;;;;;;;;5031566;28;20187;-61
2021/05/26 03:25:54;;;;;;;1.40;0.53;;;;;;;;;;5030698;28;20184;-62
2021/05/26 03:28:20;;;;;;;0.00;0.00;;;;;;;;;;5035266;28;20191;-62
2021/05/26 03:30:47;;;;;;;0.00;0.00;;;;;;;;;;5031134;28;20196;-62
2021/05/26 03:33:14;;;;;;;0.63;0.63;;;;;;;;;;5035832;28;20856;-62
2021/05/26 03:35:42;;;;;;;0.27;0.13;;;;;;;;;;5038359;28;20199;-62
2021/05/26 03:38:09;;;;;;;0.00;0.00;;;;;;;;;;5031596;28;21808;-62
2021/05/26 03:40:36;;;;;;;0.57;0.10;;;;;;;;;;5020988;28;20801;-62
2021/05/26 03:43:03;;;;;;;0.00;0.00;;;;;;;;;;5019019;28;20358;-62
2021/05/26 03:45:29;;;;;;;2.73;0.67;;;;;;;;;;5016078;28;20973;-62
2021/05/26 03:47:57;;;;;;;0.00;0.00;;;;;;;;;;5017370;28;20994;-62
2021/05/26 03:50:24;;;;;;;0.10;0.10;;;;;;;;;;5019841;28;20957;-62
2021/05/26 03:52:51;;;;;;;13.87;1.80;;;;;;;;;;5017048;28;20183;-62
2021/05/26 03:55:19;;;;;;;0.00;0.00;;;;;;;;;;5025083;28;20312;-62
2021/05/26 03:57:47;;;;;;;0.00;0.00;;;;;;;;;;5029392;28;20185;-62
2021/05/26 04:00:15;;;;;;;0.73;0.60;;;;;;;;;;5021614;28;20176;-62
2021/05/26 04:02:42;;;;;;;0.60;0.60;;;;;;;;;;5018431;28;20290;-62
2021/05/26 04:05:08;;;;;;;0.00;0.00;;;;;;;;;;5021551;28;20237;-62
2021/05/26 04:07:35;;;;;;;0.00;0.00;;;;;;;;;;5036212;28;20708;-62
2021/05/26 04:10:01;;;;;;;1.63;1.00;;;;;;;;;;5032148;28;20195;-62
2021/05/26 04:12:28;;;;;;;0.00;0.00;;;;;;;;;;5029349;28;20303;-62
2021/05/26 04:14:58;;;;;;;0.77;0.47;;;;;;;;;;5037058;28;20200;-63
2021/05/26 04:17:24;;;;;;;0.23;0.23;;;;;;;;;;5019585;28;20192;-63
2021/05/26 04:19:51;;;;;;;0.10;0.10;;;;;;;;;;5030706;28;20600;-62
2021/05/26 04:22:18;;;;;;;2.87;1.50;;;;;;;;;;5035247;28;20223;-62
2021/05/26 04:24:45;;;;;;;4.73;3.53;;;;;;;;;;5035977;28;20285;-62
2021/05/26 04:27:12;;;;;;;2.73;0.40;;;;;;;;;;5038999;28;20194;-62
2021/05/26 04:29:38;;;;;;;0.00;0.00;;;;;;;;;;5020522;28;20191;-62
2021/05/26 04:32:05;;;;;;;0.93;0.40;;;;;;;;;;5015248;28;20192;-63
2021/05/26 04:34:32;;;;;;;0.17;0.17;;;;;;;;;;5015139;28;20782;-62
2021/05/26 04:36:59;;;;;;;0.13;0.13;;;;;;;;;;5026701;28;20180;-62
2021/05/26 04:39:25;;;;;;;0.03;0.03;;;;;;;;;;5027219;28;21344;-62
2021/05/26 04:41:52;;;;;;;0.00;0.00;;;;;;;;;;5019928;28;20245;-62
2021/05/26 04:44:18;;;;;;;0.00;0.00;;;;;;;;;;5016608;28;20192;-63
2021/05/26 04:46:45;;;;;;;0.27;0.27;;;;;;;;;;5020692;28;20234;-63
2021/05/26 04:49:13;;;;;;;0.83;0.40;;;;;;;;;;5032682;28;20180;-63
2021/05/26 04:51:39;;;;;;;0.10;0.10;;;;;;;;;;5029149;28;20846;-62
2021/05/26 04:54:06;;;;;;;0.00;0.00;;;;;;;;;;5037129;28;20227;-63
2021/05/26 04:56:32;;;;;;;0.47;0.47;;;;;;;;;;5036481;28;20183;-63
2021/05/26 04:58:59;;;;;;;0.00;0.00;;;;;;;;;;5024863;28;20196;-63
2021/05/26 05:01:25;;;;;;;0.00;0.00;;;;;;;;;;5020164;28;20184;-64
2021/05/26 05:03:52;;;;;;;0.00;0.00;;;;;;;;;;5038106;28;20215;-63
2021/05/26 05:06:20;;;;;;;0.00;0.00;;;;;;;;;;5033481;28;20838;-64
2021/05/26 05:08:48;;;;;;;0.00;0.00;;;;;;;;;;5031594;28;20187;-64
2021/05/26 05:11:14;;;;;;;0.00;0.00;;;;;;;;;;5027244;28;20184;-64
2021/05/26 05:13:41;;;;;;;4.53;2.20;;;;;;;;;;5038625;28;20218;-64
2021/05/26 05:16:07;;;;;;;0.00;0.00;;;;;;;;;;5034138;28;20203;-64
2021/05/26 05:18:34;;;;;;;0.10;0.10;;;;;;;;;;5036829;28;20176;-63
2021/05/26 05:21:00;;;;;;;0.33;0.33;;;;;;;;;;5033538;28;20215;-63
2021/05/26 05:23:27;;;;;;;0.50;0.50;;;;;;;;;;5019860;28;20281;-63
2021/05/26 05:25:53;;;;;;;0.57;0.53;;;;;;;;;;5011180;28;20295;-63
2021/05/26 05:28:20;;;;;;;0.43;0.20;;;;;;;;;;5017391;28;20235;-61
2021/05/26 05:30:47;;;;;;;14.33;1.67;;;;;;;;;;5033334;28;20668;-62
2021/05/26 05:33:13;;;;;;;0.00;0.00;;;;;;;;;;5034890;28;21021;-62
2021/05/26 05:35:40;;;;;;;0.10;0.10;;;;;;;;;;5033841;28;20729;-62
2021/05/26 05:38:06;;;;;;;2.20;1.13;;;;;;;;;;5037773;28;20191;-62
2021/05/26 05:40:33;;;;;;;2.80;0.67;;;;;;;;;;5034673;28;20176;-62
2021/05/26 05:42:59;;;;;;;0.10;0.10;;;;;;;;;;5017994;28;20185;-62
2021/05/26 05:45:26;;;;;;;0.00;0.00;;;;;;;;;;5032379;28;20338;-63
2021/05/26 05:47:52;;;;;;;0.00;0.00;;;;;;;;;;5020136;28;20184;-62
2021/05/26 05:50:19;;;;;;;0.93;0.93;;;;;;;;;;5027127;28;20192;-62
2021/05/26 05:52:49;;;;;;;0.73;0.30;;;;;;;;;;5020504;28;20193;-62
2021/05/26 05:55:17;;;;;;;0.00;0.00;;;;;;;;;;5018428;28;20244;-62
2021/05/26 05:57:43;;;;;;;0.30;0.30;;;;;;;;;;5019508;28;20193;-62
2021/05/26 06:00:11;;;;;;;0.10;0.10;;;;;;;;;;5023071;28;20189;-62
2021/05/26 06:02:38;;;;;;;1.17;0.83;;;;;;;;;;5019365;28;20250;-62
2021/05/26 06:05:05;;;;;;;0.47;0.47;;;;;;;;;;5019327;28;20266;-62
2021/05/26 06:07:31;;;;;;;0.10;0.10;;;;;;;;;;5030465;28;21001;-63
2021/05/26 06:09:58;;;;;;;0.10;0.10;;;;;;;;;;5033128;28;20238;-62
2021/05/26 06:12:25;;;;;;;0.00;0.00;;;;;;;;;;5038159;28;20196;-63
2021/05/26 06:14:52;;;;;;;0.00;0.00;;;;;;;;;;5018284;28;20295;-62
2021/05/26 06:17:18;;;;;;;0.00;0.00;;;;;;;;;;5017544;28;20309;-63
2021/05/26 06:19:45;;;;;;;0.00;0.00;;;;;;;;;;5025946;28;20192;-62
2021/05/26 06:22:11;;;;;;;0.17;0.17;;;;;;;;;;5023305;28;20187;-62
2021/05/26 06:24:38;;;;;;;0.00;0.00;;;;;;;;;;5040244;28;20222;-64
2021/05/26 06:27:05;;;;;;;0.50;0.40;;;;;;;;;;5040355;28;20214;-63
2021/05/26 06:29:31;;;;;;;0.00;0.00;;;;;;;;;;5039427;28;20192;-63
2021/05/26 06:31:58;;;;;;;0.23;0.23;;;;;;;;;;5039084;28;20307;-63
2021/05/26 06:34:24;;;;;;;0.00;0.00;;;;;;;;;;5032686;28;20284;-63
2021/05/26 06:36:51;;;;;;;0.00;0.00;;;;;;;;;;5015892;28;20248;-62
2021/05/26 06:39:18;;;;;;;0.00;0.00;;;;;;;;;;5022133;28;20177;-63
2021/05/26 06:41:45;;;;;;;0.13;0.03;;;;;;;;;;5023254;28;20193;-63
2021/05/26 06:44:11;;;;;;;0.37;0.37;;;;;;;;;;5016510;28;20191;-63
2021/05/26 06:46:41;;;;;;;0.30;0.30;;;;;;;;;;5018426;28;20199;-63
2021/05/26 06:49:08;;;;;;;0.00;0.00;;;;;;;;;;5037620;28;20207;-63
2021/05/26 06:51:35;;;;;;;0.30;0.13;;;;;;;;;;5037513;28;20262;-62
2021/05/26 06:54:02;;;;;;;0.20;0.20;;;;;;;;;;5033808;28;20227;-63
2021/05/26 06:56:28;;;;;;;1.67;0.93;;;;;;;;;;5041122;28;20192;-63
2021/05/26 06:58:55;;;;;;;0.00;0.00;;;;;;;;;;5028748;28;20199;-62
2021/05/26 07:01:22;;;;;;;2.53;0.67;;;;;;;;;;5025071;28;20195;-62
2021/05/26 07:03:49;;;;;;;0.00;0.00;;;;;;;;;;5019131;28;20197;-62
2021/05/26 07:06:15;;;;;;;2.47;0.57;;;;;;;;;;5023232;28;20262;-62
2021/05/26 07:08:42;;;;;;;0.20;0.20;;;;;;;;;;5036713;28;20184;-62
2021/05/26 07:11:09;;;;;;;0.20;0.20;;;;;;;;;;5035091;28;20188;-62
2021/05/26 07:13:36;;;;;;;0.00;0.00;;;;;;;;;;5023532;28;20191;-62
2021/05/26 07:16:03;;;;;;;0.70;0.70;;;;;;;;;;5028643;28;20223;-63
2021/05/26 07:18:32;;;;;;;0.50;0.30;;;;;;;;;;5039162;28;20302;-63
2021/05/26 07:20:58;;;;;;;0.00;0.00;;;;;;;;;;5022310;28;20826;-63
2021/05/26 07:23:25;;;;;;;0.43;0.43;;;;;;;;;;5024803;28;20302;-63
2021/05/26 07:25:51;;;;;;;0.00;0.00;;;;;;;;;;5040234;28;20176;-62
2021/05/26 07:28:18;;;;;;;0.30;0.30;;;;;;;;;;5029988;28;20237;-62
2021/05/26 07:30:45;;;;;;;1.17;0.43;;;;;;;;;;5016463;28;20195;-62
2021/05/26 07:33:11;;;;;;;0.33;0.33;;;;;;;;;;5023793;28;20226;-63
2021/05/26 07:35:38;;;;;;;4.57;1.20;;;;;;;;;;5035264;28;21015;-62
2021/05/26 07:38:05;;;;;;;0.00;0.00;;;;;;;;;;5039568;28;20188;-62
2021/05/26 07:40:31;;;;;;;0.00;0.00;;;;;;;;;;5038117;28;20234;-62
2021/05/26 07:42:58;;;;;;;0.00;0.00;;;;;;;;;;5037301;28;20206;-62
2021/05/26 07:45:24;;;;;;;0.00;0.00;;;;;;;;;;5032600;28;20982;-64
2021/05/26 07:47:51;;;;;;;0.00;0.00;;;;;;;;;;5032090;28;20184;-63
2021/05/26 07:50:18;;;;;;;4.70;0.60;;;;;;;;;;5017995;28;20194;-63
2021/05/26 07:52:44;;;;;;;0.00;0.00;;;;;;;;;;5017700;28;20714;-63
2021/05/26 07:55:11;;;;;;;0.00;0.00;;;;;;;;;;5019625;28;20946;-63
2021/05/26 07:57:38;;;;;;;0.00;0.00;;;;;;;;;;5033624;28;20545;-63
2021/05/26 08:00:05;;;;;;;0.00;0.00;;;;;;;;;;5029292;28;20184;-63
2021/05/26 08:02:32;;;;;;;0.20;0.20;;;;;;;;;;5038911;28;20215;-63
2021/05/26 08:04:59;;;;;;;0.20;0.20;;;;;;;;;;5028995;28;20276;-63
2021/05/26 08:07:25;;;;;;;0.20;0.20;;;;;;;;;;5019145;28;20192;-63
2021/05/26 08:09:52;;;;;;;3.63;0.73;;;;;;;;;;5034321;28;20180;-63
2021/05/26 08:12:19;;;;;;;0.00;0.00;;;;;;;;;;5021076;28;20188;-63
2021/05/26 08:14:45;;;;;;;0.93;0.93;;;;;;;;;;5023116;28;20239;-63
2021/05/26 08:17:12;;;;;;;0.00;0.00;;;;;;;;;;5030480;28;20176;-63
2021/05/26 08:19:38;;;;;;;1.90;0.63;;;;;;;;;;5028551;28;20224;-63
2021/05/26 08:22:05;;;;;;;1.37;0.67;;;;;;;;;;5018985;28;20180;-63
2021/05/26 08:24:32;;;;;;;0.47;0.40;;;;;;;;;;5019894;28;20192;-63
2021/05/26 08:26:58;;;;;;;0.00;0.00;;;;;;;;;;5036435;28;20187;-63
2021/05/26 08:29:26;;;;;;;7.43;1.00;;;;;;;;;;5025100;28;20195;-62
2021/05/26 08:31:56;;;;;;;0.00;0.00;;;;;;;;;;5038987;28;20652;-63
2021/05/26 08:34:23;;;;;;;0.00;0.00;;;;;;;;;;5029505;28;20244;-63
2021/05/26 08:36:50;;;;;;;0.67;0.67;;;;;;;;;;5018536;28;20207;-62
2021/05/26 08:39:16;;;;;;;0.00;0.00;;;;;;;;;;5027861;28;20183;-63
2021/05/26 08:41:46;;;;;;;8.13;0.73;;;;;;;;;;5034905;28;20587;-62
2021/05/26 08:44:14;;;;;;;0.00;0.00;;;;;;;;;;5034004;28;20186;-62
2021/05/26 08:46:41;;;;;;;0.00;0.00;;;;;;;;;;5028210;28;20192;-63
2021/05/26 08:49:10;;;;;;;0.40;0.40;;;;;;;;;;5025771;28;20578;-62
2021/05/26 08:51:36;;;;;;;0.30;0.23;;;;;;;;;;5031161;28;20184;-62
2021/05/26 08:54:03;;;;;;;0.60;0.60;;;;;;;;;;5037537;28;20223;-63
2021/05/26 08:56:30;;;;;;;0.10;0.10;;;;;;;;;;5025951;28;20184;-63
2021/05/26 08:58:56;;;;;;;0.00;0.00;;;;;;;;;;5030017;28;20204;-63
2021/05/26 09:01:23;;;;;;;0.27;0.27;;;;;;;;;;5028010;28;20184;-63
2021/05/26 09:03:51;;;;;;;0.00;0.00;;;;;;;;;;5030366;28;20270;-63
2021/05/26 09:06:18;;;;;;;0.00;0.00;;;;;;;;;;5019769;28;20246;-63
2021/05/26 09:08:46;;;;;;;0.40;0.40;;;;;;;;;;5023633;28;20234;-63
2021/05/26 09:11:13;;;;;;;0.00;0.00;;;;;;;;;;5033349;28;20206;-63
2021/05/26 09:13:41;;;;;;;0.00;0.00;;;;;;;;;;5037584;28;20184;-63
2021/05/26 09:16:08;;;;;;;0.10;0.10;;;;;;;;;;5027559;28;20693;-63
2021/05/26 09:18:55;;;;;;;3.83;1.50;;;;;;;;;;5030260;28;20271;-63
2021/05/26 09:21:40;;;;;;;0.30;0.30;;;;;;;;;;5030517;28;20184;-62
2021/05/26 09:24:22;;;;;;;0.00;0.00;;;;;;;;;;5026803;28;20178;-63
2021/05/26 09:26:52;;;;;;;0.00;0.00;;;;;;;;;;5026860;28;20200;-63
2021/05/26 09:29:32;;;;;;;0.00;0.00;;;;;;;;;;5022956;28;20725;-63
2021/05/26 09:32:19;;;;;;;0.30;0.13;;;;;;;;;;5024152;28;20260;-63
2021/05/26 09:34:47;;;;;;;0.00;0.00;;;;;;;;;;5027601;28;20207;-63
2021/05/26 09:37:34;;;;;;;2.57;0.50;;;;;;;;;;5026168;28;20190;-62
2021/05/26 09:40:04;;;;;;;0.00;0.00;;;;;;;;;;5025833;28;20184;-62
2021/05/26 09:42:36;;;;;;;3.30;0.97;;;;;;;;;;5024169;28;20199;-62
2021/05/26 09:45:13;;;;;;;0.10;0.00;;;;;;;;;;5024332;28;20183;-62
2021/05/26 09:47:43;;;;;;;1.17;0.53;;;;;;;;;;5026596;28;20195;-62
2021/05/26 09:50:17;;;;;;;0.00;0.00;;;;;;;;;;5026667;28;20192;-62
2021/05/26 09:52:56;;;;;;;0.00;0.00;;;;;;;;;;5025603;28;20184;-63
2021/05/26 09:55:23;;;;;;;0.00;0.00;;;;;;;;;;5024980;28;20323;-62
2021/05/26 09:57:51;;;;;;;0.00;0.00;;;;;;;;;;5025853;28;20188;-62
2021/05/26 10:00:18;;;;;;;5.67;1.53;;;;;;;;;;5022285;28;20740;-63
2021/05/26 10:02:46;;;;;;;0.13;0.10;;;;;;;;;;5025871;28;20938;-63
2021/05/26 13:06:13;;;;;;;0.30;0.30;;;;;;;;;;5037312;28;20653;-62
2021/05/26 13:08:40;;;;;;;0.00;0.00;;;;;;;;;;5032776;28;20168;-62
2021/05/26 13:11:07;;;;;;;1.93;1.53;;;;;;;;;;5036776;28;20321;-62
2021/05/26 13:13:34;;;;;;;0.50;0.50;;;;;;;;;;5027767;28;20184;-62
2021/05/26 13:16:01;;;;;;;1.10;0.20;;;;;;;;;;5027274;28;20190;-62
2021/05/26 13:18:29;;;;;;;0.47;0.47;;;;;;;;;;5030222;28;20279;-63
2021/05/26 13:20:57;;;;;;;1.83;0.97;;;;;;;;;;5036016;28;20194;-63
2021/05/26 13:23:24;;;;;;;0.13;0.10;;;;;;;;;;5035058;28;20179;-63
2021/05/26 13:25:52;;;;;;;0.23;0.23;;;;;;;;;;5030680;28;20203;-62
2021/05/26 13:28:19;;;;;;;1.53;1.43;;;;;;;;;;5017293;28;20291;-62
2021/05/26 13:30:47;;;;;;;0.20;0.20;;;;;;;;;;5015964;28;20263;-61
2021/05/26 13:33:14;;;;;;;0.60;0.30;;;;;;;;;;5017480;28;20212;-62
2021/05/26 13:35:41;;;;;;;6.00;2.47;;;;;;;;;;5017387;28;20190;-62
2021/05/26 13:38:08;;;;;;;1.13;1.10;;;;;;;;;;5028444;28;20205;-62
2021/05/26 13:40:35;;;;;;;0.50;0.30;;;;;;;;;;5027133;28;20176;-61
2021/05/26 13:43:02;;;;;;;0.40;0.07;;;;;;;;;;5025860;28;20864;-62
2021/05/26 13:45:29;;;;;;;0.20;0.20;;;;;;;;;;5028621;28;20196;-61
2021/05/26 13:47:56;;;;;;;2.13;1.57;;;;;;;;;;5022257;28;20307;-61
2021/05/26 13:50:23;;;;;;;0.57;0.57;;;;;;;;;;5032535;28;20182;-62
2021/05/26 13:52:54;;;;;;;0.00;0.00;;;;;;;;;;5035705;28;20176;-61
2021/05/26 13:55:22;;;;;;;9.00;4.07;;;;;;;;;;5028569;28;20172;-61
2021/05/26 13:57:52;;;;;;;6.20;0.47;;;;;;;;;;5035082;28;20238;-61
2021/05/26 14:00:19;;;;;;;2.13;1.20;;;;;;;;;;5034903;28;20546;-61
2021/05/26 14:02:46;;;;;;;0.10;0.10;;;;;;;;;;5031101;28;21020;-61
2021/05/26 14:05:17;;;;;;;3.00;0.70;;;;;;;;;;5023839;28;20316;-62
2021/05/26 14:07:43;;;;;;;0.97;0.67;;;;;;;;;;5020851;28;20231;-62
2021/05/26 14:10:10;;;;;;;1.17;0.83;;;;;;;;;;5021007;28;20420;-61
2021/05/26 14:12:37;;;;;;;0.73;0.73;;;;;;;;;;5020208;28;20184;-61
2021/05/26 14:15:05;;;;;;;1.60;0.27;;;;;;;;;;5021466;28;20993;-62
2021/05/26 14:17:31;;;;;;;0.10;0.10;;;;;;;;;;5003684;28;20266;-61
2021/05/26 14:19:58;;;;;;;0.30;0.20;;;;;;;;;;5008101;28;20180;-61
2021/05/26 14:22:26;;;;;;;0.00;0.00;;;;;;;;;;5006907;28;20185;-62
2021/05/26 14:24:52;;;;;;;0.47;0.30;;;;;;;;;;5007014;28;20212;-62
2021/05/26 14:27:19;;;;;;;1.23;0.43;;;;;;;;;;5003091;28;20188;-62
2021/05/26 14:29:46;;;;;;;14.53;1.07;;;;;;;;;;5006842;28;20178;-62
2021/05/26 14:32:12;;;;;;;1.23;0.30;;;;;;;;;;5015774;28;20215;-62
2021/05/26 14:34:41;;;;;;;1.57;0.50;;;;;;;;;;5019372;28;20192;-62
2021/05/26 14:37:12;;;;;;;0.83;0.33;;;;;;;;;;5017120;28;20197;-61
2021/05/26 14:39:41;;;;;;;1.33;0.87;;;;;;;;;;5006115;28;20940;-61
2021/05/26 14:42:08;;;;;;;0.10;0.07;;;;;;;;;;4999852;28;20912;-61
2021/05/26 14:44:35;;;;;;;5.50;1.10;;;;;;;;;;5006419;28;20207;-62
2021/05/26 14:47:01;;;;;;;0.67;0.20;;;;;;;;;;5007027;28;21003;-62
2021/05/26 14:49:28;;;;;;;0.10;0.10;;;;;;;;;;5005822;28;20188;-62
2021/05/26 14:51:55;;;;;;;4.90;2.17;;;;;;;;;;5006764;28;20254;-62
2021/05/26 14:54:22;;;;;;;2.27;0.83;;;;;;;;;;5004826;28;20293;-62
2021/05/26 14:56:49;;;;;;;0.03;0.03;;;;;;;;;;5008402;28;20247;-62
2021/05/26 14:59:15;;;;;;;0.00;0.00;;;;;;;;;;5008528;28;20235;-62
2021/05/26 15:01:42;;;;;;;0.00;0.00;;;;;;;;;;5018957;28;20177;-62
2021/05/26 15:04:08;;;;;;;0.60;0.50;;;;;;;;;;5019581;28;20259;-61
2021/05/26 15:06:35;;;;;;;0.00;0.00;;;;;;;;;;5020012;28;20184;-62
2021/05/26 15:09:02;;;;;;;2.23;1.20;;;;;;;;;;5008253;28;20203;-62
2021/05/26 15:11:28;;;;;;;10.93;0.70;;;;;;;;;;5015338;28;20189;-62
2021/05/26 15:13:55;;;;;;;1.30;0.07;;;;;;;;;;5011045;28;20200;-62
2021/05/26 15:16:22;;;;;;;1.57;1.23;;;;;;;;;;5008187;28;20207;-62
2021/05/26 15:18:48;;;;;;;0.30;0.30;;;;;;;;;;5004640;28;20234;-61
2021/05/26 15:21:15;;;;;;;1.83;0.60;;;;;;;;;;5011506;28;20656;-62
2021/05/26 15:23:44;;;;;;;0.47;0.17;;;;;;;;;;5010044;28;20246;-62
2021/05/26 15:26:10;;;;;;;0.00;0.00;;;;;;;;;;5009009;28;20222;-62
2021/05/26 15:28:37;;;;;;;0.87;0.83;;;;;;;;;;5010580;28;20861;-61
2021/05/26 15:31:04;;;;;;;0.00;0.00;;;;;;;;;;5006258;28;20183;-62
2021/05/26 15:33:30;;;;;;;4.03;0.83;;;;;;;;;;5012327;28;20183;-62
2021/05/26 15:35:57;;;;;;;1.60;0.50;;;;;;;;;;5018318;28;20199;-61
2021/05/26 15:38:24;;;;;;;0.13;0.10;;;;;;;;;;5018683;28;20199;-62
2021/05/26 15:40:50;;;;;;;0.57;0.27;;;;;;;;;;5014085;28;20892;-61
2021/05/26 15:43:17;;;;;;;2.13;0.23;;;;;;;;;;5010155;28;20872;-62
2021/05/26 15:45:43;;;;;;;2.20;0.73;;;;;;;;;;5006574;28;20881;-62
2021/05/26 15:48:10;;;;;;;0.20;0.20;;;;;;;;;;5007834;28;20186;-62
2021/05/26 15:50:37;;;;;;;0.00;0.00;;;;;;;;;;5012068;28;20280;-62
2021/05/26 15:53:03;;;;;;;0.00;0.00;;;;;;;;;;5016067;28;20668;-62
2021/05/26 15:55:30;;;;;;;0.50;0.50;;;;;;;;;;5004215;28;20266;-62
2021/05/26 15:57:56;;;;;;;2.07;0.63;;;;;;;;;;5009710;28;20192;-61
2021/05/26 16:00:25;;;;;;;0.67;0.67;;;;;;;;;;5011511;28;20279;-61
2021/05/26 16:02:54;;;;;;;0.20;0.10;;;;;;;;;;5009960;28;20270;-61
2021/05/26 16:05:22;;;;;;;0.30;0.30;;;;;;;;;;5019421;28;21049;-62
2021/05/26 16:07:51;;;;;;;4.43;0.40;;;;;;;;;;5015281;28;20195;-61
2021/05/26 16:10:19;;;;;;;3.30;0.40;;;;;;;;;;5018459;28;20645;-61
2021/05/26 16:12:48;;;;;;;5.37;0.57;;;;;;;;;;5019326;28;20171;-61
2021/05/26 16:15:17;;;;;;;1.60;0.67;;;;;;;;;;5016161;28;20203;-61
2021/05/26 16:17:44;;;;;;;0.97;0.67;;;;;;;;;;5008987;28;20192;-62
2021/05/26 16:20:11;;;;;;;1.10;1.00;;;;;;;;;;5011236;28;20196;-62
2021/05/26 16:22:38;;;;;;;1.33;0.63;;;;;;;;;;5014941;28;20184;-62
2021/05/26 16:25:05;;;;;;;0.60;0.30;;;;;;;;;;5004961;28;20306;-62
2021/05/26 16:27:32;;;;;;;2.90;0.80;;;;;;;;;;5011712;28;20177;-62
2021/05/26 16:29:59;;;;;;;0.07;0.07;;;;;;;;;;5005828;28;20318;-62
2021/05/26 16:32:25;;;;;;;2.00;0.63;;;;;;;;;;5001186;28;20632;-62
2021/05/26 16:34:52;;;;;;;1.83;0.67;;;;;;;;;;5008942;28;20184;-62
2021/05/26 16:37:18;;;;;;;1.43;0.50;;;;;;;;;;5011910;28;20188;-62
2021/05/26 16:39:45;;;;;;;0.10;0.10;;;;;;;;;;5010400;28;20177;-62
2021/05/26 16:42:16;;;;;;;1.50;0.83;;;;;;;;;;5015284;28;20203;-62
2021/05/26 16:44:43;;;;;;;0.63;0.40;;;;;;;;;;5004039;28;20209;-61
2021/05/26 16:47:09;;;;;;;0.60;0.30;;;;;;;;;;5014695;28;20713;-62
2021/05/26 16:49:36;;;;;;;1.33;0.57;;;;;;;;;;5017251;28;20605;-61
2021/05/26 16:52:03;;;;;;;1.13;0.60;;;;;;;;;;5019004;28;20183;-62
2021/05/26 16:54:29;;;;;;;0.17;0.10;;;;;;;;;;5012415;28;20191;-62
2021/05/26 16:56:58;;;;;;;6.97;0.60;;;;;;;;;;5007349;28;20181;-62
2021/05/26 16:59:25;;;;;;;0.00;0.00;;;;;;;;;;5018319;28;20211;-62
2021/05/26 17:01:51;;;;;;;0.83;0.50;;;;;;;;;;5018881;28;20195;-62
2021/05/26 17:04:18;;;;;;;0.40;0.20;;;;;;;;;;5018316;28;20231;-62
2021/05/26 17:06:45;;;;;;;0.20;0.20;;;;;;;;;;5009184;28;20176;-62
2021/05/26 17:09:12;;;;;;;7.40;1.40;;;;;;;;;;5009303;28;20907;-62
2021/05/26 17:11:39;;;;;;;0.90;0.77;;;;;;;;;;5008948;28;20650;-62
2021/05/26 17:14:07;;;;;;;13.67;1.50;;;;;;;;;;5008005;28;20730;-63
2021/05/26 17:16:34;;;;;;;1.53;0.47;;;;;;;;;;5009853;28;20175;-61
2021/05/26 17:19:00;;;;;;;0.40;0.33;;;;;;;;;;5009678;28;20185;-62
2021/05/26 17:21:27;;;;;;;2.10;0.63;;;;;;;;;;5016064;28;20176;-61
2021/05/26 17:23:54;;;;;;;1.43;0.63;;;;;;;;;;5014162;28;20215;-62
2021/05/26 17:26:22;;;;;;;0.77;0.30;;;;;;;;;;5014128;28;20277;-62
2021/05/26 17:28:49;;;;;;;2.33;0.80;;;;;;;;;;5007731;28;20177;-62
2021/05/26 17:31:17;;;;;;;0.00;0.00;;;;;;;;;;5018652;28;20187;-62
2021/05/26 17:33:46;;;;;;;0.20;0.20;;;;;;;;;;5015877;28;20199;-62
2021/05/26 17:36:13;;;;;;;2.53;0.77;;;;;;;;;;5013960;28;20211;-62
2021/05/26 17:38:40;;;;;;;1.10;0.77;;;;;;;;;;5006805;28;20192;-61
2021/05/26 17:41:07;;;;;;;0.00;0.00;;;;;;;;;;5013320;28;20194;-62
2021/05/26 17:43:34;;;;;;;1.23;0.90;;;;;;;;;;5012027;28;20195;-62
2021/05/26 17:46:00;;;;;;;1.53;1.20;;;;;;;;;;5010802;28;20235;-62